ETHS

Fassberg Airport

Germany
METAR ETHS 121020Z 03004KT 9999 FEW008 SCT013 BKN041 03/02 Q1026 BLU BLU TEMPO GRN
Observed Flight Rules
Dec-12 @ 10:20 UTC (32 minutes ago) Visual Flight Rules
Wind Visibility Clouds
30° at 4 knots 10,000+ meters
  • Few at 800' AGL
  • Scattered at 1,300' AGL
  • Broken at 4,100' AGL
Temperatures Readings
Current 3°C / 37°F
Dewpoint 2°C / 36°F
Humidity 93%
Altimeter 30.3" Hg
Pressure 1026 hPa
Elevation 88
METAR ETHS 121020Z 03004KT 9999 FEW008 SCT013 BKN041 03/02 Q1026 BLU BLU TEMPO GRN
Observed Flight Rules
Dec-12 @ 10:20 UTC
(32 minutes ago)
VFR
Wind Visibility
30° at 4 knots 10,000+ meters
Clouds
  • Few at 800' AGL
  • Scattered at 1,300' AGL
  • Broken at 4,100' AGL
Temperature Dewpoint
3°C / 37°F 2°C / 36°F
Humidity Altimeter Pressure
93% 30.3" Hg 1026 hPa